Main page
METAR-TAF:

METAR-TAF

Airports :

Ghedi Air Base

Brescia Ghedi, Italy

latitude: 45-25N, longitude: 010-17E, elevation: 102 m

Current weather observation

The report was made 46 minutes ago, at 06:55 UTC
Wind 3 kt from the Northwest
Temperature 16°C
Humidity 82%
Pressure 1029 hPa
Visibility 10 km or more
Few clouds at a height of 8000 ft

METAR: LIPL 190655Z 32003KT 9999 FEW080 16/13 Q1029 RMK FEW VIS MIN 9999 WIND THR31 33002KT WIND THR13 32002KT BLU

Time: 09:41 (07:41 UTC)

Forecast

The report was made 2 hours and 41 minutes ago, at 05:00 UTC
Forecast valid from 19 at 06 UTC to 19 at 15 UTC
Wind 3 kt from variable directions
Visibility 10 km or more
Few clouds at a height of 8000 ft

TAF: LIPL 190500Z 1906/1915 VRB03KT 9999 FEW080

Weather observations and forecasts of more than 4000 airports (METAR and TAF reports).

The available stations are represented by yellow and red dots on the map.

Hover mouse over dot to see the name of the station.

Then click to see weather observations and forecasts.

To change the map : click on the green buttons with a black cross to zoom in, on the green button with a dash to zoom out, or on the green arrows for adjacent maps.


METAR-TAF: